Terminal Aerodrome Forecast
Issued by NWS

Home | Current Version | Previous Version | Text Only | Print | Product List | Glossary On
Versions: 1 2 3 4 5 6 7 8 9 10 11 12 13 14 15 16 17 18 19 20 21 22 23 24 25 26 27 28 29 30 31 32 33 34 35 36 37 38 39 40 41
000
FTUS41 KRNK 260520
TAFLWB
TAF
KLWB 260520Z 2606/2706 02007KT P6SM SCT050 OVC060
     FM261000 VRB03KT 3SM -RA BR SCT003 OVC015
     FM261200 05003KT 1SM -RA OVC005
     FM261900 29005KT 1SM -RASN BR OVC010
     FM270000 31007G17KT 3SM -SN BR OVC012=

USA.gov is the U.S. government's official web portal to all federal, state and local government web resources and services.